Adams, NE (68301)

8:11 AM CST on December 11, 2016 (GMT -0600)
Woodland Plaza | | Change Station

Elev 1283 ft 40.63 °N, 96.63 °W | Updated 24 seconds ago

Overcast
Overcast
31.1 °F
Feels Like 31 °F
N
0.0
Wind Variable Wind from NW

Today
High -- | Low -- °F
--% Chance of Precip.
Yesterday
High -- | Low -- °F
Precip. -- in
Pressure 29.75 in
Visibility 10.0 miles
Clouds Overcast 1100 ft
Windchill 31 °F
Dew Point 25 °F
Humidity 80%
Rainfall 0.00 in
Snow Depth Not available.
7:39 AM 4:59 PM
Waxing Gibbous, 91% visible
METAR KBIE 111355Z AUTO 00000KT 10SM OVC011 01/M02 A2975 RMK AO2 T00071017
Pressure 29.75 in
Visibility 10.0 miles
Clouds Overcast 1100 ft
Windchill 31 °F
Dew Point 25 °F
Humidity 80%
Rainfall 0.00 in
Snow Depth Not available.
7:39 AM 4:59 PM
Waxing Gibbous, 91% visible
METAR KBIE 111355Z AUTO 00000KT 10SM OVC011 01/M02 A2975 RMK AO2 T00071017

10-Day Weather Forecast

Almanac

Astronomy

Dec. 11, 2016 Rise Set
Actual Time
Civil Twilight
Nautical Twilight
Astronomical Twilight
Moon
Length of Visible Light
Length of Day
Tomorrow will be .
, % of the Moon is Illuminated

Today's Extremes

State Highs State Lows

Community

WunderPhotos

Upload Photos

1,956,710 photos uploaded!

WunderBlog® & News

Nearby

Air Quality

  Air Quality AQ Index Pollutant
Not available.

Snow Depth

Station Depth Elevation

Earthquake Activity

City Distance Mag. Time & Date
Minimum magnitude displayed is 2.5.

Coastal Water Temperatures

Place Temperature

Stations

Nearby Weather Stations

Station Location Temp. Windchill Dew Point Humidity Wind Precip. Elev Updated Type
                   

Watches & Warnings

There are currently no watches in effect.